sensor_id;sensor_type;location;lat;lon;timestamp;P1;durP1;ratioP1;P2;durP2;ratioP2
39102;SDS011;24847;48.218;16.414;2022-07-11T00:00:14;1.20;;;0.25;;
39102;SDS011;24847;48.218;16.414;2022-07-11T00:05:17;0.95;;;0.20;;
39102;SDS011;24847;48.218;16.414;2022-07-11T00:10:21;0.88;;;0.30;;
39102;SDS011;24847;48.218;16.414;2022-07-11T00:15:23;0.47;;;0.28;;
39102;SDS011;24847;48.218;16.414;2022-07-11T00:20:26;1.00;;;0.30;;
39102;SDS011;24847;48.218;16.414;2022-07-11T00:25:30;1.52;;;0.40;;
39102;SDS011;24847;48.218;16.414;2022-07-11T00:30:32;0.77;;;0.20;;
39102;SDS011;24847;48.218;16.414;2022-07-11T00:35:34;1.65;;;0.30;;
39102;SDS011;24847;48.218;16.414;2022-07-11T00:40:38;1.40;;;0.30;;
39102;SDS011;24847;48.218;16.414;2022-07-11T00:45:40;0.77;;;0.32;;
39102;SDS011;24847;48.218;16.414;2022-07-11T00:50:42;0.95;;;0.30;;
39102;SDS011;24847;48.218;16.414;2022-07-11T00:55:46;1.30;;;0.30;;
39102;SDS011;24847;48.218;16.414;2022-07-11T01:00:49;0.85;;;0.20;;
39102;SDS011;24847;48.218;16.414;2022-07-11T01:05:51;0.40;;;0.20;;
39102;SDS011;24847;48.218;16.414;2022-07-11T01:10:55;1.00;;;0.20;;
39102;SDS011;24847;48.218;16.414;2022-07-11T01:16:07;0.45;;;0.20;;
39102;SDS011;24847;48.218;16.414;2022-07-11T01:21:18;0.55;;;0.20;;
39102;SDS011;24847;48.218;16.414;2022-07-11T01:26:26;0.60;;;0.30;;
39102;SDS011;24847;48.218;16.414;2022-07-11T01:31:30;0.45;;;0.20;;
39102;SDS011;24847;48.218;16.414;2022-07-11T01:36:32;0.28;;;0.20;;
39102;SDS011;24847;48.218;16.414;2022-07-11T01:41:36;0.35;;;0.20;;
39102;SDS011;24847;48.218;16.414;2022-07-11T01:46:38;0.93;;;0.30;;
39102;SDS011;24847;48.218;16.414;2022-07-11T01:51:41;0.93;;;0.40;;
39102;SDS011;24847;48.218;16.414;2022-07-11T01:56:45;1.00;;;0.20;;
39102;SDS011;24847;48.218;16.414;2022-07-11T02:01:47;0.63;;;0.20;;
39102;SDS011;24847;48.218;16.414;2022-07-11T02:06:50;1.80;;;0.38;;
39102;SDS011;24847;48.218;16.414;2022-07-11T02:11:53;0.50;;;0.20;;
39102;SDS011;24847;48.218;16.414;2022-07-11T02:16:55;2.17;;;0.25;;
39102;SDS011;24847;48.218;16.414;2022-07-11T02:21:58;0.60;;;0.20;;
39102;SDS011;24847;48.218;16.414;2022-07-11T02:27:07;1.02;;;0.35;;
39102;SDS011;24847;48.218;16.414;2022-07-11T02:32:09;0.52;;;0.20;;
39102;SDS011;24847;48.218;16.414;2022-07-11T02:37:11;1.15;;;0.40;;
39102;SDS011;24847;48.218;16.414;2022-07-11T02:42:15;0.73;;;0.20;;
39102;SDS011;24847;48.218;16.414;2022-07-11T02:47:18;0.40;;;0.20;;
39102;SDS011;24847;48.218;16.414;2022-07-11T02:52:20;0.50;;;0.20;;
39102;SDS011;24847;48.218;16.414;2022-07-11T02:57:24;0.28;;;0.20;;
39102;SDS011;24847;48.218;16.414;2022-07-11T03:02:26;1.17;;;0.55;;
39102;SDS011;24847;48.218;16.414;2022-07-11T03:07:29;1.05;;;0.38;;
39102;SDS011;24847;48.218;16.414;2022-07-11T03:12:32;0.20;;;0.20;;
39102;SDS011;24847;48.218;16.414;2022-07-11T03:17:34;0.60;;;0.30;;
39102;SDS011;24847;48.218;16.414;2022-07-11T03:22:37;0.65;;;0.40;;
39102;SDS011;24847;48.218;16.414;2022-07-11T03:27:41;1.17;;;0.55;;
39102;SDS011;24847;48.218;16.414;2022-07-11T03:32:43;0.65;;;0.45;;
39102;SDS011;24847;48.218;16.414;2022-07-11T03:37:45;1.02;;;0.75;;
39102;SDS011;24847;48.218;16.414;2022-07-11T03:42:49;1.00;;;0.30;;
39102;SDS011;24847;48.218;16.414;2022-07-11T03:47:51;0.77;;;0.38;;
39102;SDS011;24847;48.218;16.414;2022-07-11T03:52:53;1.20;;;0.30;;
39102;SDS011;24847;48.218;16.414;2022-07-11T03:57:57;0.98;;;0.40;;
39102;SDS011;24847;48.218;16.414;2022-07-11T04:02:59;0.90;;;0.40;;
39102;SDS011;24847;48.218;16.414;2022-07-11T04:08:02;0.90;;;0.60;;
39102;SDS011;24847;48.218;16.414;2022-07-11T04:13:06;2.42;;;0.40;;
39102;SDS011;24847;48.218;16.414;2022-07-11T04:18:08;0.80;;;0.40;;
39102;SDS011;24847;48.218;16.414;2022-07-11T04:23:11;1.35;;;0.45;;
39102;SDS011;24847;48.218;16.414;2022-07-11T04:28:14;2.58;;;0.47;;
39102;SDS011;24847;48.218;16.414;2022-07-11T04:33:17;1.35;;;0.60;;
39102;SDS011;24847;48.218;16.414;2022-07-11T04:38:19;0.60;;;0.50;;
39102;SDS011;24847;48.218;16.414;2022-07-11T04:43:23;1.38;;;0.60;;
39102;SDS011;24847;48.218;16.414;2022-07-11T04:48:25;2.17;;;0.75;;
39102;SDS011;24847;48.218;16.414;2022-07-11T04:53:28;1.15;;;0.45;;
39102;SDS011;24847;48.218;16.414;2022-07-11T04:58:31;0.90;;;0.40;;
39102;SDS011;24847;48.218;16.414;2022-07-11T05:03:34;1.40;;;0.47;;
39102;SDS011;24847;48.218;16.414;2022-07-11T05:08:36;1.30;;;0.80;;
39102;SDS011;24847;48.218;16.414;2022-07-11T05:13:40;1.25;;;0.68;;
39102;SDS011;24847;48.218;16.414;2022-07-11T05:18:42;1.92;;;0.32;;
39102;SDS011;24847;48.218;16.414;2022-07-11T05:23:44;1.45;;;0.60;;
39102;SDS011;24847;48.218;16.414;2022-07-11T05:28:48;1.15;;;0.55;;
39102;SDS011;24847;48.218;16.414;2022-07-11T05:33:51;1.10;;;0.65;;
39102;SDS011;24847;48.218;16.414;2022-07-11T05:38:53;1.70;;;0.43;;
39102;SDS011;24847;48.218;16.414;2022-07-11T05:43:57;0.65;;;0.40;;
39102;SDS011;24847;48.218;16.414;2022-07-11T05:48:59;2.05;;;0.70;;
39102;SDS011;24847;48.218;16.414;2022-07-11T05:54:02;2.22;;;0.63;;
39102;SDS011;24847;48.218;16.414;2022-07-11T05:59:06;1.73;;;0.60;;
39102;SDS011;24847;48.218;16.414;2022-07-11T06:04:09;1.55;;;0.50;;
39102;SDS011;24847;48.218;16.414;2022-07-11T06:09:11;1.40;;;0.68;;
39102;SDS011;24847;48.218;16.414;2022-07-11T06:14:15;1.25;;;0.55;;
39102;SDS011;24847;48.218;16.414;2022-07-11T06:19:18;0.95;;;0.60;;
39102;SDS011;24847;48.218;16.414;2022-07-11T06:24:20;2.38;;;0.70;;
39102;SDS011;24847;48.218;16.414;2022-07-11T06:29:23;1.50;;;0.50;;
39102;SDS011;24847;48.218;16.414;2022-07-11T06:34:26;1.00;;;0.60;;
39102;SDS011;24847;48.218;16.414;2022-07-11T06:39:28;2.22;;;0.80;;
39102;SDS011;24847;48.218;16.414;2022-07-11T06:44:32;1.67;;;0.65;;
39102;SDS011;24847;48.218;16.414;2022-07-11T06:49:34;2.15;;;0.55;;
39102;SDS011;24847;48.218;16.414;2022-07-11T06:54:36;3.30;;;0.50;;
39102;SDS011;24847;48.218;16.414;2022-07-11T06:59:39;2.53;;;0.60;;
39102;SDS011;24847;48.218;16.414;2022-07-11T07:04:42;1.25;;;0.60;;
39102;SDS011;24847;48.218;16.414;2022-07-11T07:09:44;1.67;;;0.80;;
39102;SDS011;24847;48.218;16.414;2022-07-11T07:14:47;1.83;;;0.70;;
39102;SDS011;24847;48.218;16.414;2022-07-11T07:19:50;1.30;;;0.73;;
39102;SDS011;24847;48.218;16.414;2022-07-11T07:24:52;1.60;;;0.63;;
39102;SDS011;24847;48.218;16.414;2022-07-11T07:29:55;1.33;;;0.60;;
39102;SDS011;24847;48.218;16.414;2022-07-11T07:34:57;3.72;;;0.80;;
39102;SDS011;24847;48.218;16.414;2022-07-11T07:40:00;4.25;;;0.60;;
39102;SDS011;24847;48.218;16.414;2022-07-11T07:45:04;2.22;;;0.70;;
39102;SDS011;24847;48.218;16.414;2022-07-11T07:50:07;1.25;;;0.80;;
39102;SDS011;24847;48.218;16.414;2022-07-11T07:55:10;3.28;;;0.77;;
39102;SDS011;24847;48.218;16.414;2022-07-11T08:00:14;2.63;;;0.70;;
39102;SDS011;24847;48.218;16.414;2022-07-11T08:05:35;1.45;;;0.55;;
39102;SDS011;24847;48.218;16.414;2022-07-11T08:10:37;1.15;;;0.60;;
39102;SDS011;24847;48.218;16.414;2022-07-11T08:15:41;1.23;;;0.52;;
39102;SDS011;24847;48.218;16.414;2022-07-11T08:20:43;2.65;;;0.60;;
39102;SDS011;24847;48.218;16.414;2022-07-11T08:25:45;2.60;;;0.82;;
39102;SDS011;24847;48.218;16.414;2022-07-11T08:30:49;2.47;;;0.57;;
39102;SDS011;24847;48.218;16.414;2022-07-11T08:35:51;1.02;;;0.50;;
39102;SDS011;24847;48.218;16.414;2022-07-11T08:40:53;3.30;;;0.80;;
39102;SDS011;24847;48.218;16.414;2022-07-11T08:45:57;2.10;;;0.70;;
39102;SDS011;24847;48.218;16.414;2022-07-11T08:50:59;1.02;;;0.77;;
39102;SDS011;24847;48.218;16.414;2022-07-11T08:56:03;1.33;;;0.63;;
39102;SDS011;24847;48.218;16.414;2022-07-11T09:01:08;2.28;;;0.80;;
39102;SDS011;24847;48.218;16.414;2022-07-11T09:06:11;3.50;;;0.82;;
39102;SDS011;24847;48.218;16.414;2022-07-11T09:11:14;2.22;;;1.23;;
39102;SDS011;24847;48.218;16.414;2022-07-11T09:16:18;1.95;;;0.80;;
39102;SDS011;24847;48.218;16.414;2022-07-11T09:21:20;2.50;;;1.15;;
39102;SDS011;24847;48.218;16.414;2022-07-11T09:26:49;2.33;;;0.90;;
39102;SDS011;24847;48.218;16.414;2022-07-11T09:31:54;3.38;;;1.08;;
39102;SDS011;24847;48.218;16.414;2022-07-11T09:36:57;1.13;;;0.90;;
39102;SDS011;24847;48.218;16.414;2022-07-11T09:41:59;3.92;;;0.90;;
39102;SDS011;24847;48.218;16.414;2022-07-11T09:47:07;3.13;;;1.08;;
39102;SDS011;24847;48.218;16.414;2022-07-11T09:52:11;1.38;;;0.80;;
39102;SDS011;24847;48.218;16.414;2022-07-11T09:57:14;1.80;;;0.77;;
39102;SDS011;24847;48.218;16.414;2022-07-11T10:02:18;2.20;;;0.82;;
39102;SDS011;24847;48.218;16.414;2022-07-11T10:07:20;2.70;;;1.00;;
39102;SDS011;24847;48.218;16.414;2022-07-11T10:12:23;2.47;;;0.80;;
39102;SDS011;24847;48.218;16.414;2022-07-11T10:17:28;2.80;;;0.90;;
39102;SDS011;24847;48.218;16.414;2022-07-11T10:22:41;1.50;;;0.80;;
39102;SDS011;24847;48.218;16.414;2022-07-11T10:27:54;1.70;;;0.63;;
39102;SDS011;24847;48.218;16.414;2022-07-11T10:33:12;2.38;;;0.70;;
39102;SDS011;24847;48.218;16.414;2022-07-11T10:38:15;1.40;;;0.55;;
39102;SDS011;24847;48.218;16.414;2022-07-11T10:43:32;2.80;;;0.80;;
39102;SDS011;24847;48.218;16.414;2022-07-11T10:48:54;2.30;;;0.55;;
39102;SDS011;24847;48.218;16.414;2022-07-11T10:54:04;2.50;;;0.80;;
39102;SDS011;24847;48.218;16.414;2022-07-11T10:59:16;2.17;;;0.50;;
39102;SDS011;24847;48.218;16.414;2022-07-11T11:09:46;1.20;;;0.73;;
39102;SDS011;24847;48.218;16.414;2022-07-11T11:14:48;1.25;;;0.70;;
39102;SDS011;24847;48.218;16.414;2022-07-11T11:19:55;2.72;;;1.10;;
39102;SDS011;24847;48.218;16.414;2022-07-11T11:24:57;3.65;;;0.70;;
39102;SDS011;24847;48.218;16.414;2022-07-11T11:30:00;1.02;;;0.70;;
39102;SDS011;24847;48.218;16.414;2022-07-11T11:35:09;0.88;;;0.50;;
39102;SDS011;24847;48.218;16.414;2022-07-11T11:40:12;1.48;;;0.73;;
39102;SDS011;24847;48.218;16.414;2022-07-11T11:45:15;1.30;;;0.60;;
39102;SDS011;24847;48.218;16.414;2022-07-11T11:50:22;1.50;;;0.60;;
39102;SDS011;24847;48.218;16.414;2022-07-11T11:55:24;1.27;;;0.60;;
39102;SDS011;24847;48.218;16.414;2022-07-11T12:00:27;1.25;;;0.70;;
39102;SDS011;24847;48.218;16.414;2022-07-11T12:05:33;1.25;;;0.50;;
39102;SDS011;24847;48.218;16.414;2022-07-11T12:10:35;1.75;;;0.70;;
39102;SDS011;24847;48.218;16.414;2022-07-11T12:15:37;1.95;;;0.70;;
39102;SDS011;24847;48.218;16.414;2022-07-11T12:20:55;2.45;;;0.60;;
39102;SDS011;24847;48.218;16.414;2022-07-11T12:25:58;3.53;;;0.77;;
39102;SDS011;24847;48.218;16.414;2022-07-11T12:31:00;2.15;;;0.70;;
39102;SDS011;24847;48.218;16.414;2022-07-11T12:36:04;1.00;;;0.68;;
39102;SDS011;24847;48.218;16.414;2022-07-11T12:41:06;1.98;;;0.80;;
39102;SDS011;24847;48.218;16.414;2022-07-11T12:46:10;2.60;;;0.90;;
39102;SDS011;24847;48.218;16.414;2022-07-11T12:51:21;1.45;;;0.50;;
39102;SDS011;24847;48.218;16.414;2022-07-11T12:56:28;1.80;;;0.80;;
39102;SDS011;24847;48.218;16.414;2022-07-11T13:01:31;1.17;;;0.60;;
39102;SDS011;24847;48.218;16.414;2022-07-11T13:06:42;1.08;;;0.60;;
39102;SDS011;24847;48.218;16.414;2022-07-11T13:12:02;2.55;;;0.80;;
39102;SDS011;24847;48.218;16.414;2022-07-11T13:17:05;3.72;;;0.70;;
39102;SDS011;24847;48.218;16.414;2022-07-11T13:22:09;1.55;;;0.65;;
39102;SDS011;24847;48.218;16.414;2022-07-11T13:27:11;1.40;;;0.70;;
39102;SDS011;24847;48.218;16.414;2022-07-11T13:32:13;1.42;;;0.73;;
39102;SDS011;24847;48.218;16.414;2022-07-11T13:37:16;1.42;;;0.88;;
39102;SDS011;24847;48.218;16.414;2022-07-11T13:42:19;2.55;;;0.70;;
39102;SDS011;24847;48.218;16.414;2022-07-11T13:47:21;1.48;;;0.88;;
39102;SDS011;24847;48.218;16.414;2022-07-11T13:52:25;1.33;;;0.80;;
39102;SDS011;24847;48.218;16.414;2022-07-11T13:57:27;1.33;;;0.70;;
39102;SDS011;24847;48.218;16.414;2022-07-11T14:02:30;1.75;;;0.80;;
39102;SDS011;24847;48.218;16.414;2022-07-11T14:07:34;1.05;;;0.50;;
39102;SDS011;24847;48.218;16.414;2022-07-11T14:12:37;2.55;;;0.80;;
39102;SDS011;24847;48.218;16.414;2022-07-11T14:17:42;1.67;;;0.60;;
39102;SDS011;24847;48.218;16.414;2022-07-11T14:22:45;3.17;;;2.13;;
39102;SDS011;24847;48.218;16.414;2022-07-11T14:27:47;0.80;;;0.70;;
39102;SDS011;24847;48.218;16.414;2022-07-11T14:32:50;1.08;;;0.60;;
39102;SDS011;24847;48.218;16.414;2022-07-11T14:37:53;1.02;;;0.70;;
39102;SDS011;24847;48.218;16.414;2022-07-11T14:42:55;1.60;;;0.60;;
39102;SDS011;24847;48.218;16.414;2022-07-11T14:47:58;1.08;;;0.60;;
39102;SDS011;24847;48.218;16.414;2022-07-11T14:53:01;0.77;;;0.52;;
39102;SDS011;24847;48.218;16.414;2022-07-11T14:58:04;1.65;;;0.60;;
39102;SDS011;24847;48.218;16.414;2022-07-11T15:03:06;1.08;;;0.60;;
39102;SDS011;24847;48.218;16.414;2022-07-11T15:08:27;1.92;;;0.70;;
39102;SDS011;24847;48.218;16.414;2022-07-11T15:13:47;1.85;;;0.60;;
39102;SDS011;24847;48.218;16.414;2022-07-11T15:18:49;1.80;;;0.80;;
39102;SDS011;24847;48.218;16.414;2022-07-11T15:23:52;1.23;;;0.70;;
39102;SDS011;24847;48.218;16.414;2022-07-11T15:28:55;1.25;;;0.60;;
39102;SDS011;24847;48.218;16.414;2022-07-11T15:33:57;0.73;;;0.55;;
39102;SDS011;24847;48.218;16.414;2022-07-11T15:39:01;2.17;;;0.73;;
39102;SDS011;24847;48.218;16.414;2022-07-11T15:44:03;1.35;;;0.70;;
39102;SDS011;24847;48.218;16.414;2022-07-11T15:49:05;1.70;;;0.80;;
39102;SDS011;24847;48.218;16.414;2022-07-11T15:54:09;1.90;;;0.65;;
39102;SDS011;24847;48.218;16.414;2022-07-11T15:59:12;0.98;;;0.60;;
39102;SDS011;24847;48.218;16.414;2022-07-11T16:04:14;1.40;;;0.57;;
39102;SDS011;24847;48.218;16.414;2022-07-11T16:09:18;1.77;;;1.00;;
39102;SDS011;24847;48.218;16.414;2022-07-11T16:14:20;1.48;;;0.80;;
39102;SDS011;24847;48.218;16.414;2022-07-11T16:19:23;1.08;;;0.60;;
39102;SDS011;24847;48.218;16.414;2022-07-11T16:24:27;1.17;;;0.52;;
39102;SDS011;24847;48.218;16.414;2022-07-11T16:29:30;1.48;;;0.60;;
39102;SDS011;24847;48.218;16.414;2022-07-11T16:34:33;1.73;;;0.50;;
39102;SDS011;24847;48.218;16.414;2022-07-11T16:39:36;1.13;;;0.50;;
39102;SDS011;24847;48.218;16.414;2022-07-11T16:44:56;1.65;;;0.70;;
39102;SDS011;24847;48.218;16.414;2022-07-11T16:49:58;1.00;;;0.60;;
39102;SDS011;24847;48.218;16.414;2022-07-11T16:55:02;2.05;;;0.70;;
39102;SDS011;24847;48.218;16.414;2022-07-11T17:00:06;1.30;;;0.93;;
39102;SDS011;24847;48.218;16.414;2022-07-11T17:05:11;1.45;;;0.70;;
39102;SDS011;24847;48.218;16.414;2022-07-11T17:10:14;1.30;;;0.68;;
39102;SDS011;24847;48.218;16.414;2022-07-11T17:15:17;2.50;;;0.80;;
39102;SDS011;24847;48.218;16.414;2022-07-11T17:20:19;1.40;;;0.98;;
39102;SDS011;24847;48.218;16.414;2022-07-11T17:25:25;1.05;;;0.70;;
39102;SDS011;24847;48.218;16.414;2022-07-11T17:30:29;0.80;;;0.70;;
39102;SDS011;24847;48.218;16.414;2022-07-11T17:35:31;1.23;;;0.70;;
39102;SDS011;24847;48.218;16.414;2022-07-11T17:40:35;0.80;;;0.70;;
39102;SDS011;24847;48.218;16.414;2022-07-11T17:45:37;1.30;;;0.98;;
39102;SDS011;24847;48.218;16.414;2022-07-11T17:50:40;1.95;;;1.23;;
39102;SDS011;24847;48.218;16.414;2022-07-11T17:55:46;1.35;;;1.10;;
39102;SDS011;24847;48.218;16.414;2022-07-11T18:00:49;1.85;;;1.60;;
39102;SDS011;24847;48.218;16.414;2022-07-11T18:05:51;1.70;;;1.17;;
39102;SDS011;24847;48.218;16.414;2022-07-11T18:10:55;2.17;;;0.88;;
39102;SDS011;24847;48.218;16.414;2022-07-11T18:16:01;1.67;;;0.85;;
39102;SDS011;24847;48.218;16.414;2022-07-11T18:21:04;1.70;;;1.17;;
39102;SDS011;24847;48.218;16.414;2022-07-11T18:26:09;3.50;;;1.30;;
39102;SDS011;24847;48.218;16.414;2022-07-11T18:31:11;2.15;;;1.23;;
39102;SDS011;24847;48.218;16.414;2022-07-11T18:36:13;1.15;;;0.85;;
39102;SDS011;24847;48.218;16.414;2022-07-11T18:41:17;2.42;;;1.50;;
39102;SDS011;24847;48.218;16.414;2022-07-11T18:46:21;1.63;;;0.80;;
39102;SDS011;24847;48.218;16.414;2022-07-11T18:51:23;1.30;;;0.70;;
39102;SDS011;24847;48.218;16.414;2022-07-11T18:56:27;0.80;;;0.65;;
39102;SDS011;24847;48.218;16.414;2022-07-11T19:01:29;1.58;;;0.80;;
39102;SDS011;24847;48.218;16.414;2022-07-11T19:06:31;1.73;;;0.73;;
39102;SDS011;24847;48.218;16.414;2022-07-11T19:11:35;1.38;;;1.10;;
39102;SDS011;24847;48.218;16.414;2022-07-11T19:16:39;1.80;;;1.33;;
39102;SDS011;24847;48.218;16.414;2022-07-11T19:21:42;1.20;;;1.00;;
39102;SDS011;24847;48.218;16.414;2022-07-11T19:26:46;3.47;;;2.42;;
39102;SDS011;24847;48.218;16.414;2022-07-11T19:31:49;2.63;;;1.70;;
39102;SDS011;24847;48.218;16.414;2022-07-11T19:36:51;2.53;;;1.90;;
39102;SDS011;24847;48.218;16.414;2022-07-11T19:41:55;2.35;;;1.98;;
39102;SDS011;24847;48.218;16.414;2022-07-11T19:46:57;1.65;;;1.20;;
39102;SDS011;24847;48.218;16.414;2022-07-11T19:52:00;2.13;;;1.35;;
39102;SDS011;24847;48.218;16.414;2022-07-11T19:57:04;1.88;;;1.33;;
39102;SDS011;24847;48.218;16.414;2022-07-11T20:02:24;1.60;;;1.20;;
39102;SDS011;24847;48.218;16.414;2022-07-11T20:07:29;2.47;;;1.55;;
39102;SDS011;24847;48.218;16.414;2022-07-11T20:12:32;2.30;;;1.48;;
39102;SDS011;24847;48.218;16.414;2022-07-11T20:17:35;4.20;;;3.28;;
39102;SDS011;24847;48.218;16.414;2022-07-11T20:22:37;4.93;;;3.17;;
39102;SDS011;24847;48.218;16.414;2022-07-11T20:27:41;3.75;;;2.20;;
39102;SDS011;24847;48.218;16.414;2022-07-11T20:32:43;2.88;;;2.05;;
39102;SDS011;24847;48.218;16.414;2022-07-11T20:37:45;1.75;;;1.27;;
39102;SDS011;24847;48.218;16.414;2022-07-11T20:42:49;1.77;;;1.65;;
39102;SDS011;24847;48.218;16.414;2022-07-11T20:47:51;3.10;;;1.20;;
39102;SDS011;24847;48.218;16.414;2022-07-11T20:52:53;2.60;;;1.10;;
39102;SDS011;24847;48.218;16.414;2022-07-11T20:57:57;2.47;;;0.90;;
39102;SDS011;24847;48.218;16.414;2022-07-11T21:02:59;1.85;;;0.80;;
39102;SDS011;24847;48.218;16.414;2022-07-11T21:08:01;2.28;;;1.00;;
39102;SDS011;24847;48.218;16.414;2022-07-11T21:13:06;1.10;;;0.70;;
39102;SDS011;24847;48.218;16.414;2022-07-11T21:18:08;1.83;;;0.88;;
39102;SDS011;24847;48.218;16.414;2022-07-11T21:23:10;1.17;;;0.73;;
39102;SDS011;24847;48.218;16.414;2022-07-11T21:28:14;2.00;;;1.45;;
39102;SDS011;24847;48.218;16.414;2022-07-11T21:33:17;1.63;;;1.10;;
39102;SDS011;24847;48.218;16.414;2022-07-11T21:38:19;2.17;;;1.10;;
39102;SDS011;24847;48.218;16.414;2022-07-11T21:43:23;1.67;;;1.02;;
39102;SDS011;24847;48.218;16.414;2022-07-11T21:48:25;1.23;;;1.00;;
39102;SDS011;24847;48.218;16.414;2022-07-11T21:53:27;1.33;;;0.98;;
39102;SDS011;24847;48.218;16.414;2022-07-11T21:58:30;1.40;;;1.10;;
39102;SDS011;24847;48.218;16.414;2022-07-11T22:03:33;1.02;;;0.93;;
39102;SDS011;24847;48.218;16.414;2022-07-11T22:08:35;1.70;;;1.02;;
39102;SDS011;24847;48.218;16.414;2022-07-11T22:13:38;2.75;;;1.35;;
39102;SDS011;24847;48.218;16.414;2022-07-11T22:18:41;3.05;;;1.50;;
39102;SDS011;24847;48.218;16.414;2022-07-11T22:23:44;1.48;;;1.23;;
39102;SDS011;24847;48.218;16.414;2022-07-11T22:28:50;2.63;;;1.30;;
39102;SDS011;24847;48.218;16.414;2022-07-11T22:33:52;2.13;;;1.30;;
39102;SDS011;24847;48.218;16.414;2022-07-11T22:38:55;1.85;;;1.25;;
39102;SDS011;24847;48.218;16.414;2022-07-11T22:43:58;2.33;;;1.52;;
39102;SDS011;24847;48.218;16.414;2022-07-11T22:49:00;1.80;;;1.70;;
39102;SDS011;24847;48.218;16.414;2022-07-11T22:54:03;2.38;;;1.45;;
39102;SDS011;24847;48.218;16.414;2022-07-11T22:59:06;1.52;;;0.98;;
39102;SDS011;24847;48.218;16.414;2022-07-11T23:04:08;1.25;;;0.90;;
39102;SDS011;24847;48.218;16.414;2022-07-11T23:09:11;2.85;;;1.13;;
39102;SDS011;24847;48.218;16.414;2022-07-11T23:14:14;1.55;;;1.10;;
39102;SDS011;24847;48.218;16.414;2022-07-11T23:19:17;1.92;;;1.20;;
39102;SDS011;24847;48.218;16.414;2022-07-11T23:24:19;2.40;;;1.20;;
39102;SDS011;24847;48.218;16.414;2022-07-11T23:29:22;2.88;;;1.20;;
39102;SDS011;24847;48.218;16.414;2022-07-11T23:34:25;1.83;;;0.90;;
39102;SDS011;24847;48.218;16.414;2022-07-11T23:39:27;1.27;;;1.10;;
39102;SDS011;24847;48.218;16.414;2022-07-11T23:44:30;0.88;;;0.75;;
39102;SDS011;24847;48.218;16.414;2022-07-11T23:49:33;1.30;;;1.00;;
39102;SDS011;24847;48.218;16.414;2022-07-11T23:54:35;1.10;;;1.00;;
39102;SDS011;24847;48.218;16.414;2022-07-11T23:59:39;1.27;;;0.90;;
